Time;durP1;ratioP1;P1;durP2;ratioP2;P2;SDS_P1;SDS_P2;PMS_P1;PMS_P2;Temp;Humidity;BMP_temperature;BMP_pressure;BME280_temperature;BME280_humidity;BME280_pressure;Samples;Min_cycle;Max_cycle;Signal;HPM_P1;HPM_P2
2023/05/02 00:00:28;;;;;;;1.20;0.90;;;11.70;99.90;;;;;;5119020;28;20451;-52
2023/05/02 00:02:55;;;;;;;3.07;1.00;;;11.70;99.90;;;;;;5119769;28;20432;-50
2023/05/02 00:05:23;;;;;;;1.60;1.10;;;11.60;99.90;;;;;;5118329;28;20443;-50
2023/05/02 00:07:51;;;;;;;1.90;0.90;;;11.60;99.90;;;;;;5120467;28;20424;-49
2023/05/02 00:10:18;;;;;;;1.50;1.00;;;11.50;99.90;;;;;;5119895;28;20428;-53
2023/05/02 00:12:45;;;;;;;1.40;1.10;;;11.40;99.90;;;;;;5120639;28;20416;-52
2023/05/02 00:15:13;;;;;;;1.40;1.08;;;11.40;99.90;;;;;;5120127;28;20476;-54
2023/05/02 00:17:41;;;;;;;1.20;0.97;;;11.30;99.90;;;;;;5120751;28;20454;-52
2023/05/02 00:20:09;;;;;;;1.50;1.00;;;11.40;99.90;;;;;;5117140;28;20460;-54
2023/05/02 00:22:36;;;;;;;1.70;1.00;;;11.30;99.90;;;;;;5115786;28;20507;-53
2023/05/02 00:25:06;;;;;;;1.50;1.00;;;11.40;99.90;;;;;;5114623;28;20493;-52
2023/05/02 00:27:33;;;;;;;1.40;1.20;;;11.40;99.90;;;;;;5113642;28;20420;-52
2023/05/02 00:30:00;;;;;;;1.70;1.00;;;11.40;99.90;;;;;;5114745;28;20723;-51
2023/05/02 00:32:28;;;;;;;1.50;1.00;;;11.40;99.90;;;;;;5115285;28;20420;-53
2023/05/02 00:34:55;;;;;;;1.67;1.20;;;11.30;99.90;;;;;;5114861;28;20836;-49
2023/05/02 00:37:27;;;;;;;1.50;1.10;;;11.30;99.90;;;;;;5114976;28;20763;-51
2023/05/02 00:39:54;;;;;;;1.80;1.10;;;11.30;99.90;;;;;;5115652;28;20522;-50
2023/05/02 00:42:22;;;;;;;1.35;1.00;;;11.30;99.90;;;;;;5115848;28;20485;-52
2023/05/02 00:44:49;;;;;;;1.60;1.00;;;11.30;99.90;;;;;;5116463;28;20428;-52
2023/05/02 00:47:16;;;;;;;1.58;1.10;;;11.30;99.90;;;;;;5116006;28;20420;-50
2023/05/02 00:49:44;;;;;;;1.10;0.90;;;11.40;99.90;;;;;;5114619;28;20428;-50
2023/05/02 00:52:11;;;;;;;1.30;0.90;;;11.40;99.90;;;;;;5115415;28;20416;-52
2023/05/02 00:54:38;;;;;;;1.30;0.98;;;11.40;99.90;;;;;;5116295;28;20424;-54
2023/05/02 00:57:05;;;;;;;1.20;0.90;;;11.20;99.90;;;;;;5116675;28;20416;-53
2023/05/02 00:59:35;;;;;;;1.60;1.08;;;11.20;99.90;;;;;;5115801;28;20451;-53
2023/05/02 01:02:11;;;;;;;1.20;1.00;;;11.10;99.90;;;;;;5116684;28;20724;-52
2023/05/02 01:04:50;;;;;;;2.00;1.00;;;11.10;99.90;;;;;;5115320;28;20436;-51
2023/05/02 01:07:30;;;;;;;1.20;1.00;;;11.10;99.90;;;;;;5115882;28;20428;-52
2023/05/02 01:10:03;;;;;;;1.10;0.90;;;11.10;99.90;;;;;;5103113;28;20489;-52
2023/05/02 01:12:37;;;;;;;1.30;1.00;;;11.20;99.90;;;;;;5116623;28;20461;-52
2023/05/02 01:15:10;;;;;;;1.63;1.00;;;11.10;99.90;;;;;;5115434;28;20515;-50
2023/05/02 01:17:38;;;;;;;1.30;1.00;;;11.10;99.90;;;;;;5111952;28;21007;-54
2023/05/02 01:20:09;;;;;;;1.40;1.10;;;11.00;99.90;;;;;;5113635;28;20493;-54
2023/05/02 01:22:40;;;;;;;1.40;0.90;;;11.00;99.90;;;;;;5116499;28;20474;-50
2023/05/02 01:25:18;;;;;;;2.10;1.00;;;11.10;99.90;;;;;;5115689;28;20507;-54
2023/05/02 01:27:56;;;;;;;1.30;1.00;;;11.00;99.90;;;;;;5115969;28;20904;-53
2023/05/02 01:30:27;;;;;;;1.83;1.00;;;11.00;99.90;;;;;;5113087;28;20467;-51
2023/05/02 01:32:57;;;;;;;1.70;1.40;;;11.10;99.90;;;;;;5112876;28;20504;-52
2023/05/02 01:35:26;;;;;;;1.50;1.10;;;11.10;99.90;;;;;;5113407;28;20731;-53
2023/05/02 01:37:54;;;;;;;1.30;1.00;;;11.10;99.90;;;;;;5113209;28;20438;-51
2023/05/02 01:40:23;;;;;;;1.90;1.05;;;11.10;99.90;;;;;;5114145;28;20440;-52
2023/05/02 01:42:52;;;;;;;1.20;1.00;;;11.00;99.90;;;;;;5115011;28;20432;-50
2023/05/02 01:45:20;;;;;;;1.38;1.00;;;11.00;99.90;;;;;;5115484;28;20482;-52
2023/05/02 01:47:50;;;;;;;1.60;1.08;;;10.90;99.90;;;;;;5115000;28;20484;-53
2023/05/02 01:50:20;;;;;;;1.90;1.00;;;10.90;99.90;;;;;;5115399;28;20843;-51
2023/05/02 01:52:49;;;;;;;1.30;0.98;;;10.90;99.90;;;;;;5115759;28;20481;-50
2023/05/02 01:55:18;;;;;;;1.20;1.00;;;10.90;99.90;;;;;;5114612;28;20815;-49
2023/05/02 01:57:47;;;;;;;1.40;1.00;;;10.80;99.90;;;;;;5115758;28;20473;-51
2023/05/02 02:00:17;;;;;;;1.40;1.00;;;10.80;99.90;;;;;;5114117;28;20513;-51
2023/05/02 02:02:45;;;;;;;1.50;1.10;;;10.80;99.90;;;;;;5115625;28;20450;-54
2023/05/02 02:05:14;;;;;;;1.60;1.10;;;10.80;99.90;;;;;;5113384;28;20538;-53
2023/05/02 02:07:43;;;;;;;1.52;1.10;;;10.70;99.90;;;;;;5115133;28;20424;-51
2023/05/02 02:10:10;;;;;;;2.10;1.20;;;10.70;99.90;;;;;;5113504;28;20432;-55
2023/05/02 02:12:42;;;;;;;1.60;1.10;;;10.70;99.90;;;;;;5115303;28;20743;-52
2023/05/02 02:15:18;;;;;;;1.30;1.02;;;10.60;99.90;;;;;;5114370;28;20432;-53
2023/05/02 02:17:50;;;;;;;1.40;1.10;;;10.60;99.90;;;;;;5104420;28;20425;-53
2023/05/02 02:20:20;;;;;;;1.73;1.00;;;10.60;99.90;;;;;;5102823;28;20436;-53
2023/05/02 02:22:48;;;;;;;1.50;1.00;;;10.60;99.90;;;;;;5115068;28;20705;-53
2023/05/02 02:25:17;;;;;;;1.70;1.35;;;10.60;99.90;;;;;;5115020;28;20423;-52
2023/05/02 02:27:44;;;;;;;1.60;1.20;;;10.70;99.90;;;;;;5114615;28;20417;-53
2023/05/02 02:30:12;;;;;;;1.70;1.40;;;10.70;99.90;;;;;;5114040;28;20773;-54
2023/05/02 02:32:39;;;;;;;1.40;1.05;;;10.80;99.90;;;;;;5113033;28;20588;-54
2023/05/02 02:35:07;;;;;;;2.10;1.10;;;10.80;99.90;;;;;;5113418;28;20509;-54
2023/05/02 02:37:42;;;;;;;1.30;1.08;;;10.80;99.90;;;;;;5114163;28;20805;-53
2023/05/02 02:40:21;;;;;;;1.50;1.10;;;10.80;99.90;;;;;;5114265;28;20427;-53
2023/05/02 02:42:56;;;;;;;1.38;1.10;;;10.80;99.90;;;;;;5114120;28;20416;-52
2023/05/02 02:45:32;;;;;;;1.50;1.10;;;10.80;99.90;;;;;;5114493;28;20713;-54
2023/05/02 02:48:16;;;;;;;2.45;1.10;;;10.80;99.90;;;;;;5114965;28;20442;-54
2023/05/02 02:50:59;;;;;;;2.30;1.10;;;10.80;99.90;;;;;;5114302;28;20831;-54
2023/05/02 02:53:36;;;;;;;2.25;1.10;;;10.70;99.90;;;;;;5114150;28;20832;-50
2023/05/02 02:56:06;;;;;;;1.70;1.20;;;10.80;99.90;;;;;;5113779;28;20420;-52
2023/05/02 02:58:43;;;;;;;1.50;1.10;;;10.80;99.90;;;;;;5113116;28;20416;-49
2023/05/02 03:01:15;;;;;;;1.60;1.10;;;10.80;99.90;;;;;;5111891;28;20489;-52
2023/05/02 03:03:44;;;;;;;2.10;1.10;;;10.90;99.90;;;;;;5113008;28;20419;-53
2023/05/02 03:06:11;;;;;;;1.85;1.08;;;10.80;99.90;;;;;;5112699;28;20431;-53
2023/05/02 03:08:43;;;;;;;1.40;1.10;;;10.80;99.90;;;;;;5111449;28;20423;-53
2023/05/02 03:11:10;;;;;;;1.60;1.10;;;10.90;99.90;;;;;;5113051;28;20423;-54
2023/05/02 03:13:37;;;;;;;2.00;1.10;;;11.00;99.90;;;;;;5113468;28;20446;-53
2023/05/02 03:16:29;;;;;;;1.40;1.10;;;11.10;99.90;;;;;;5112493;28;20493;-53
2023/05/02 03:18:57;;;;;;;1.87;1.10;;;11.10;99.90;;;;;;5106823;28;20470;-54
2023/05/02 03:21:24;;;;;;;1.35;1.10;;;11.00;99.90;;;;;;5113427;28;20700;-50
2023/05/02 03:23:52;;;;;;;3.17;1.20;;;11.00;99.90;;;;;;5114345;28;20426;-50
2023/05/02 03:26:20;;;;;;;1.30;1.00;;;10.90;99.90;;;;;;5110953;28;20436;-53
2023/05/02 03:28:47;;;;;;;2.47;1.10;;;10.90;99.90;;;;;;5112294;28;20493;-54
2023/05/02 03:31:14;;;;;;;1.40;1.05;;;11.00;99.90;;;;;;5112796;28;20968;-53
2023/05/02 03:33:41;;;;;;;1.60;1.30;;;11.00;99.90;;;;;;5114244;28;20480;-50
2023/05/02 03:36:08;;;;;;;1.50;1.20;;;11.00;99.90;;;;;;5107919;28;20433;-53
2023/05/02 03:38:35;;;;;;;1.73;1.20;;;11.00;99.90;;;;;;5093860;28;20849;-52
2023/05/02 03:41:04;;;;;;;1.50;1.20;;;11.00;99.90;;;;;;5092035;28;20795;-50
2023/05/02 03:43:31;;;;;;;1.60;1.10;;;11.00;99.90;;;;;;5093621;28;21065;-53
2023/05/02 03:46:04;;;;;;;1.58;1.10;;;11.10;99.90;;;;;;5094072;28;20801;-54
2023/05/02 03:48:30;;;;;;;1.50;1.10;;;11.10;99.90;;;;;;5093811;28;20421;-55
2023/05/02 03:50:57;;;;;;;2.70;1.20;;;11.10;99.90;;;;;;5093704;28;20426;-53
2023/05/02 03:53:24;;;;;;;1.70;1.10;;;11.20;99.90;;;;;;5091813;28;20417;-48
2023/05/02 03:55:52;;;;;;;2.50;1.10;;;11.20;99.90;;;;;;5094584;28;20418;-54
2023/05/02 03:58:21;;;;;;;1.50;1.20;;;11.20;99.90;;;;;;5097277;28;20788;-51
2023/05/02 04:00:48;;;;;;;1.63;1.10;;;11.20;99.90;;;;;;5097206;28;20429;-54
2023/05/02 04:03:15;;;;;;;1.50;1.20;;;11.20;99.90;;;;;;5094954;28;20418;-51
2023/05/02 04:05:42;;;;;;;1.52;1.15;;;11.20;99.90;;;;;;5093755;28;20524;-52
2023/05/02 04:08:09;;;;;;;1.60;1.20;;;11.30;99.90;;;;;;5093749;28;20476;-56
2023/05/02 04:10:36;;;;;;;2.20;1.30;;;11.30;99.90;;;;;;5094810;28;20429;-50
2023/05/02 04:13:03;;;;;;;2.47;1.10;;;11.30;99.90;;;;;;5101093;27;20481;-50
2023/05/02 04:15:33;;;;;;;1.67;1.30;;;11.40;99.90;;;;;;5115910;28;20423;-51
2023/05/02 04:18:00;;;;;;;1.73;1.20;;;11.40;99.90;;;;;;5116795;28;20427;-55
2023/05/02 04:20:27;;;;;;;1.80;1.20;;;11.40;99.90;;;;;;5117456;28;20488;-55
2023/05/02 04:22:54;;;;;;;1.48;1.15;;;11.50;99.90;;;;;;5115252;28;20435;-52
2023/05/02 04:25:21;;;;;;;1.40;1.10;;;11.60;99.90;;;;;;5117491;27;20420;-52
2023/05/02 04:27:48;;;;;;;1.40;1.10;;;11.60;99.90;;;;;;5117381;28;20767;-51
2023/05/02 04:30:15;;;;;;;1.77;1.20;;;11.70;99.90;;;;;;5116344;28;20436;-52
2023/05/02 04:32:43;;;;;;;1.70;1.40;;;11.80;99.90;;;;;;5114012;27;20497;-49
2023/05/02 04:35:10;;;;;;;1.60;1.40;;;11.80;99.90;;;;;;5116127;28;20486;-54
2023/05/02 04:37:37;;;;;;;1.80;1.20;;;11.80;99.90;;;;;;5115866;28;20420;-49
2023/05/02 04:40:06;;;;;;;1.70;1.40;;;11.90;99.90;;;;;;5115675;28;20747;-51
2023/05/02 04:42:33;;;;;;;1.67;1.20;;;11.90;99.90;;;;;;5114955;28;20412;-54
2023/05/02 04:45:00;;;;;;;2.00;1.40;;;11.90;99.90;;;;;;5115920;28;20481;-50
2023/05/02 04:47:27;;;;;;;1.80;1.30;;;11.90;99.90;;;;;;5114829;28;20408;-53
2023/05/02 04:49:55;;;;;;;2.10;1.90;;;11.90;99.90;;;;;;5112387;28;20496;-52
2023/05/02 04:52:22;;;;;;;1.30;1.00;;;11.90;99.90;;;;;;5113998;28;20466;-48
2023/05/02 04:54:49;;;;;;;1.90;1.40;;;12.10;99.90;;;;;;5112854;28;20535;-50
2023/05/02 04:57:16;;;;;;;1.98;1.30;;;12.30;99.90;;;;;;5113382;28;20416;-48
2023/05/02 04:59:43;;;;;;;1.60;1.10;;;12.40;99.90;;;;;;5111837;28;20428;-53
2023/05/02 05:02:11;;;;;;;1.60;1.20;;;12.40;99.90;;;;;;5113645;28;20420;-51
2023/05/02 05:04:38;;;;;;;1.70;1.20;;;12.50;99.90;;;;;;5113259;28;20428;-50
2023/05/02 05:07:06;;;;;;;1.60;1.40;;;12.50;99.90;;;;;;5111983;28;21029;-49
2023/05/02 05:09:33;;;;;;;2.10;1.40;;;12.50;99.90;;;;;;5112124;28;20428;-52
2023/05/02 05:12:00;;;;;;;2.10;1.50;;;12.20;99.90;;;;;;5111726;28;20412;-49
2023/05/02 05:14:28;;;;;;;1.60;1.50;;;12.10;99.90;;;;;;5113206;28;20412;-51
2023/05/02 05:16:55;;;;;;;2.00;1.40;;;11.80;99.90;;;;;;5113752;28;20781;-49
2023/05/02 05:19:22;;;;;;;2.00;1.30;;;11.60;99.90;;;;;;5113112;28;20408;-52
2023/05/02 05:21:49;;;;;;;1.80;1.50;;;11.60;99.90;;;;;;5113003;28;20416;-49
2023/05/02 05:24:17;;;;;;;2.38;1.50;;;11.60;99.90;;;;;;5113408;28;20473;-52
2023/05/02 05:26:44;;;;;;;1.80;1.20;;;11.60;99.90;;;;;;5114061;28;20839;-50
2023/05/02 05:29:11;;;;;;;2.30;1.30;;;11.90;99.90;;;;;;5113359;28;20420;-50
2023/05/02 05:31:38;;;;;;;2.40;1.60;;;12.10;99.90;;;;;;5112265;28;20412;-52
2023/05/02 05:34:05;;;;;;;2.10;1.50;;;12.30;99.90;;;;;;5111806;28;20416;-53
2023/05/02 05:36:33;;;;;;;1.95;1.40;;;12.40;99.90;;;;;;5114282;28;20459;-52
2023/05/02 05:39:00;;;;;;;2.60;1.42;;;12.40;99.90;;;;;;5113873;28;20424;-52
2023/05/02 05:41:29;;;;;;;1.52;1.40;;;12.40;99.90;;;;;;5111561;28;20832;-49
2023/05/02 05:43:56;;;;;;;2.50;1.40;;;12.40;99.90;;;;;;5110430;28;20417;-49
2023/05/02 05:46:23;;;;;;;2.58;1.90;;;12.70;99.90;;;;;;5111966;28;20846;-52
2023/05/02 05:48:50;;;;;;;2.10;1.45;;;12.70;99.90;;;;;;5112564;28;20778;-52
2023/05/02 05:51:17;;;;;;;1.90;1.63;;;12.70;99.90;;;;;;5112668;28;20572;-52
2023/05/02 05:53:44;;;;;;;2.67;1.50;;;12.70;99.90;;;;;;5110597;28;20629;-52
2023/05/02 05:56:11;;;;;;;2.47;2.00;;;13.00;99.90;;;;;;5112947;28;20485;-50
2023/05/02 05:58:41;;;;;;;2.33;1.70;;;13.20;99.90;;;;;;5112481;28;21066;-48
2023/05/02 06:01:08;;;;;;;2.83;2.00;;;13.30;99.90;;;;;;5112213;28;20735;-50
2023/05/02 06:03:35;;;;;;;3.00;1.80;;;13.10;99.90;;;;;;5111990;28;20416;-53
2023/05/02 06:06:02;;;;;;;1.92;1.50;;;13.10;99.90;;;;;;5112264;28;20435;-52
2023/05/02 06:08:29;;;;;;;3.88;1.65;;;13.30;99.90;;;;;;5111539;28;20420;-52
2023/05/02 06:10:56;;;;;;;4.00;2.08;;;13.10;99.90;;;;;;5107583;28;20424;-50
2023/05/02 06:13:23;;;;;;;1.90;1.70;;;13.30;99.90;;;;;;5109638;28;20488;-51
2023/05/02 06:15:52;;;;;;;2.30;2.05;;;13.40;99.90;;;;;;5110401;28;20815;-51
2023/05/02 06:18:19;;;;;;;2.45;2.25;;;13.20;99.90;;;;;;5108574;28;20851;-51
2023/05/02 06:20:46;;;;;;;4.00;3.03;;;13.30;99.90;;;;;;5107150;28;21059;-50
2023/05/02 06:23:13;;;;;;;2.50;2.10;;;13.10;99.90;;;;;;5107015;28;20768;-51
2023/05/02 06:25:39;;;;;;;2.78;2.40;;;13.00;99.90;;;;;;5110519;28;20766;-55
2023/05/02 06:28:08;;;;;;;3.13;2.83;;;13.20;99.90;;;;;;5110018;28;20916;-51
2023/05/02 06:30:35;;;;;;;4.43;3.00;;;13.40;99.90;;;;;;5103189;28;20432;-52
2023/05/02 06:33:06;;;;;;;2.63;2.20;;;13.40;99.90;;;;;;5107678;28;20867;-51
2023/05/02 06:35:33;;;;;;;4.00;3.00;;;13.40;99.90;;;;;;5111455;28;20936;-52
2023/05/02 06:38:00;;;;;;;3.80;3.40;;;13.50;99.90;;;;;;5110717;28;20424;-50
2023/05/02 06:40:27;;;;;;;4.20;3.60;;;13.70;99.90;;;;;;5107548;28;20439;-55
2023/05/02 06:42:54;;;;;;;4.40;3.60;;;13.50;99.90;;;;;;5106680;28;20436;-51
2023/05/02 06:45:21;;;;;;;5.75;4.15;;;13.40;99.90;;;;;;5103423;28;20490;-54
2023/05/02 06:47:48;;;;;;;4.60;4.20;;;13.50;99.90;;;;;;5100414;28;20426;-57
2023/05/02 06:50:17;;;;;;;5.20;4.57;;;13.50;99.90;;;;;;5106265;28;20641;-55
2023/05/02 06:52:44;;;;;;;5.53;4.30;;;13.50;99.90;;;;;;5104525;28;20462;-53
2023/05/02 06:55:11;;;;;;;4.70;4.13;;;13.60;99.90;;;;;;5104259;28;20481;-53
2023/05/02 06:57:38;;;;;;;5.85;4.90;;;13.50;99.90;;;;;;5105723;28;20440;-51
2023/05/02 07:00:06;;;;;;;5.25;4.72;;;13.50;99.90;;;;;;5107405;28;20485;-54
2023/05/02 07:02:33;;;;;;;5.75;5.18;;;13.30;99.90;;;;;;5106151;28;20504;-51
2023/05/02 07:05:00;;;;;;;7.00;5.65;;;13.20;99.90;;;;;;5107631;28;20416;-55
2023/05/02 07:07:28;;;;;;;5.47;4.22;;;13.00;99.90;;;;;;5107507;28;20420;-53
2023/05/02 07:09:55;;;;;;;5.22;4.72;;;13.20;99.90;;;;;;5110641;28;20465;-55
2023/05/02 07:12:22;;;;;;;6.57;5.97;;;13.60;99.90;;;;;;5111023;28;20493;-51
2023/05/02 07:14:49;;;;;;;5.93;5.35;;;13.60;99.90;;;;;;5109966;28;20630;-53
2023/05/02 07:17:16;;;;;;;6.88;6.18;;;13.70;99.90;;;;;;5107947;28;20463;-55
2023/05/02 07:19:43;;;;;;;7.53;6.72;;;13.70;99.90;;;;;;5099677;28;20479;-52
2023/05/02 07:22:10;;;;;;;7.15;6.43;;;13.50;99.90;;;;;;5088199;28;20475;-50
2023/05/02 07:24:41;;;;;;;8.00;7.13;;;13.50;99.90;;;;;;5089834;28;20436;-54
2023/05/02 07:27:09;;;;;;;6.65;5.85;;;13.40;99.90;;;;;;5086461;28;20950;-52
2023/05/02 07:29:36;;;;;;;8.73;6.82;;;13.50;99.90;;;;;;5088763;28;20704;-55
2023/05/02 07:32:03;;;;;;;8.18;7.35;;;13.50;99.90;;;;;;5092949;28;20413;-55
2023/05/02 07:34:30;;;;;;;8.50;6.72;;;13.50;99.90;;;;;;5099586;28;20508;-55
2023/05/02 07:36:58;;;;;;;7.13;6.43;;;13.50;99.90;;;;;;5109307;28;20420;-50
2023/05/02 07:39:25;;;;;;;8.00;7.20;;;13.70;99.90;;;;;;5110352;28;20493;-55
2023/05/02 07:41:54;;;;;;;7.50;6.80;;;13.90;99.90;;;;;;5108557;28;20730;-55
2023/05/02 07:44:22;;;;;;;8.48;7.07;;;13.80;99.90;;;;;;5111561;28;20419;-56
2023/05/02 07:46:49;;;;;;;7.28;6.57;;;13.90;99.90;;;;;;5111250;28;20709;-57
2023/05/02 07:49:16;;;;;;;9.83;8.20;;;14.10;99.90;;;;;;5112215;28;20439;-53
2023/05/02 07:51:44;;;;;;;11.93;8.05;;;14.20;99.90;;;;;;5112743;28;20508;-56
2023/05/02 07:54:25;;;;;;;8.60;7.70;;;14.20;99.90;;;;;;5113486;28;20420;-56
2023/05/02 07:56:56;;;;;;;7.90;7.10;;;14.30;99.90;;;;;;5113057;28;20431;-57
2023/05/02 07:59:23;;;;;;;8.38;7.18;;;14.40;99.90;;;;;;5111147;28;20765;-55
2023/05/02 08:01:50;;;;;;;8.10;7.25;;;14.60;99.90;;;;;;5109894;28;20645;-58
2023/05/02 08:04:17;;;;;;;10.35;9.25;;;14.70;99.90;;;;;;5094624;28;20433;-58
2023/05/02 08:06:44;;;;;;;9.60;8.52;;;14.60;99.90;;;;;;5091168;28;20418;-58
2023/05/02 08:09:11;;;;;;;10.20;9.02;;;14.60;99.90;;;;;;5090217;28;21054;-59
2023/05/02 08:11:38;;;;;;;11.40;10.30;;;14.20;99.90;;;;;;5106951;28;20424;-58
2023/05/02 08:14:07;;;;;;;10.93;9.70;;;13.90;99.90;;;;;;5110024;28;20439;-58
2023/05/02 08:16:34;;;;;;;11.98;10.43;;;13.90;99.90;;;;;;5111087;28;20751;-59
2023/05/02 08:19:01;;;;;;;10.45;9.35;;;13.80;99.90;;;;;;5111455;28;20477;-59
2023/05/02 08:21:28;;;;;;;12.65;10.35;;;13.70;99.90;;;;;;5110518;28;20624;-58
2023/05/02 08:23:58;;;;;;;12.38;10.20;;;13.90;99.90;;;;;;5111334;28;20420;-59
2023/05/02 08:26:26;;;;;;;11.77;10.57;;;14.10;99.90;;;;;;5111157;28;20424;-58
2023/05/02 08:28:53;;;;;;;12.52;10.73;;;14.10;99.90;;;;;;5111466;28;20568;-58
2023/05/02 08:31:22;;;;;;;12.43;9.63;;;13.90;99.90;;;;;;5112517;28;20530;-59
2023/05/02 08:33:49;;;;;;;12.90;10.77;;;13.90;99.90;;;;;;5111713;28;20697;-60
2023/05/02 08:36:18;;;;;;;11.85;10.55;;;14.00;99.90;;;;;;5112018;28;20428;-59
2023/05/02 08:38:46;;;;;;;11.05;9.50;;;14.10;99.90;;;;;;5110813;28;20424;-60
2023/05/02 08:41:15;;;;;;;12.20;10.55;;;14.40;99.90;;;;;;5111658;28;20498;-60
2023/05/02 08:43:42;;;;;;;11.10;9.98;;;14.50;99.90;;;;;;5113066;28;20453;-58
2023/05/02 08:46:11;;;;;;;12.43;11.13;;;14.60;99.90;;;;;;5111550;28;20484;-56
2023/05/02 08:48:41;;;;;;;14.98;11.82;;;14.90;99.90;;;;;;5111139;28;20748;-58
2023/05/02 08:51:10;;;;;;;12.55;9.52;;;14.90;99.90;;;;;;5110742;28;20493;-58
2023/05/02 08:53:37;;;;;;;14.20;10.93;;;15.00;99.90;;;;;;5112519;28;20939;-57
2023/05/02 08:56:06;;;;;;;10.90;9.80;;;15.20;99.90;;;;;;5113202;28;20424;-58
2023/05/02 08:58:33;;;;;;;11.68;10.38;;;15.40;99.90;;;;;;5111905;28;20408;-57
2023/05/02 09:01:03;;;;;;;11.48;10.00;;;15.60;99.90;;;;;;5106565;28;20465;-58
2023/05/02 09:03:32;;;;;;;11.30;10.10;;;15.70;99.90;;;;;;5111562;28;20427;-58
2023/05/02 09:06:06;;;;;;;12.05;9.55;;;15.80;99.90;;;;;;5110012;28;20428;-57
2023/05/02 09:08:33;;;;;;;10.73;9.60;;;15.90;99.90;;;;;;5111814;28;20473;-53
2023/05/02 09:11:01;;;;;;;13.02;10.98;;;16.10;99.90;;;;;;5112345;28;20428;-57
2023/05/02 09:13:29;;;;;;;11.63;10.43;;;15.70;99.90;;;;;;5114328;28;20481;-56
2023/05/02 09:16:00;;;;;;;11.85;9.57;;;15.40;99.90;;;;;;5113652;28;20424;-58
2023/05/02 09:18:30;;;;;;;12.48;9.45;;;15.40;99.90;;;;;;5113178;28;20705;-56
2023/05/02 09:20:58;;;;;;;14.45;9.50;;;15.40;99.90;;;;;;5106948;28;20859;-57
2023/05/02 09:23:41;;;;;;;12.60;9.63;;;15.60;99.90;;;;;;5104481;28;20428;-56
2023/05/02 09:26:13;;;;;;;8.63;7.70;;;15.60;99.90;;;;;;5101487;28;20560;-54
2023/05/02 09:28:41;;;;;;;9.13;8.07;;;15.90;99.90;;;;;;5111374;28;20905;-53
2023/05/02 09:31:09;;;;;;;11.32;9.93;;;15.90;99.90;;;;;;5111130;28;20437;-56
2023/05/02 09:33:40;;;;;;;12.57;10.37;;;16.00;99.90;;;;;;5109294;28;20416;-55
2023/05/02 09:36:08;;;;;;;8.93;8.03;;;15.70;99.90;;;;;;5107399;28;20442;-54
2023/05/02 09:38:35;;;;;;;10.52;7.97;;;15.90;99.90;;;;;;5110029;28;20435;-54
2023/05/02 09:41:03;;;;;;;10.53;8.77;;;16.10;99.90;;;;;;5108614;28;20480;-53
2023/05/02 09:43:32;;;;;;;10.50;7.22;;;16.20;99.90;;;;;;5109454;28;20412;-53
2023/05/02 09:46:00;;;;;;;9.40;8.40;;;16.50;99.90;;;;;;5111036;28;20530;-51
2023/05/02 09:48:28;;;;;;;9.10;8.27;;;16.70;99.90;;;;;;5109978;28;20435;-55
2023/05/02 09:50:56;;;;;;;11.65;8.85;;;16.90;99.90;;;;;;5111435;28;20985;-53
2023/05/02 09:53:26;;;;;;;9.30;8.40;;;16.70;99.90;;;;;;5108781;28;20433;-54
2023/05/02 09:56:05;;;;;;;10.00;9.00;;;16.80;99.90;;;;;;5109760;28;20886;-53
2023/05/02 09:58:32;;;;;;;11.27;9.80;;;16.60;99.90;;;;;;5109828;28;20436;-55
2023/05/02 10:00:59;;;;;;;10.63;9.35;;;16.50;99.90;;;;;;5109619;28;20488;-55
2023/05/02 10:03:28;;;;;;;10.02;9.02;;;16.60;99.90;;;;;;5111418;28;20416;-53
2023/05/02 10:05:56;;;;;;;10.30;9.07;;;17.00;99.90;;;;;;5110829;28;20731;-53
2023/05/02 10:08:26;;;;;;;9.50;8.50;;;16.90;99.90;;;;;;5110092;28;20465;-52
2023/05/02 10:10:55;;;;;;;10.15;9.15;;;17.00;99.90;;;;;;5109181;28;21094;-55
2023/05/02 10:13:26;;;;;;;10.25;9.15;;;17.00;99.90;;;;;;5109844;28;20920;-53
2023/05/02 10:16:00;;;;;;;9.35;8.45;;;16.80;99.90;;;;;;5110149;28;20461;-53
2023/05/02 10:18:32;;;;;;;10.57;9.02;;;16.80;99.90;;;;;;5111388;28;20724;-53
2023/05/02 10:21:01;;;;;;;11.70;9.77;;;16.80;99.90;;;;;;5110916;28;20423;-56
2023/05/02 10:23:29;;;;;;;8.65;7.72;;;17.00;99.90;;;;;;5111985;28;20416;-56
2023/05/02 10:25:58;;;;;;;8.38;7.53;;;16.90;99.90;;;;;;5110304;28;20424;-51
2023/05/02 10:28:27;;;;;;;9.00;8.10;;;16.80;99.90;;;;;;5110707;28;20508;-54
2023/05/02 10:30:54;;;;;;;11.20;10.00;;;17.30;99.90;;;;;;5109023;28;20533;-55
2023/05/02 10:33:22;;;;;;;9.90;8.95;;;17.90;99.90;;;;;;5110875;28;20416;-56
2023/05/02 10:35:50;;;;;;;10.20;9.20;;;18.20;99.90;;;;;;5110167;28;20473;-54
2023/05/02 10:38:20;;;;;;;9.20;7.47;;;18.40;99.90;;;;;;5111210;28;20891;-54
2023/05/02 10:40:55;;;;;;;8.25;6.60;;;18.30;99.90;;;;;;5107717;28;20428;-55
2023/05/02 10:43:26;;;;;;;7.73;6.53;;;18.30;99.90;;;;;;5103304;28;20500;-56
2023/05/02 10:45:54;;;;;;;8.65;7.82;;;18.10;99.90;;;;;;5090614;28;20930;-54
2023/05/02 10:48:23;;;;;;;5.85;4.93;;;18.50;99.90;;;;;;5089004;28;20418;-53
2023/05/02 10:50:52;;;;;;;6.45;5.85;;;18.70;99.90;;;;;;5089808;28;20426;-55
2023/05/02 10:53:32;;;;;;;5.20;4.80;;;18.90;99.90;;;;;;5090705;28;20406;-51
2023/05/02 10:56:17;;;;;;;4.80;4.35;;;18.60;99.90;;;;;;5090092;28;20452;-52
2023/05/02 10:58:47;;;;;;;5.45;3.88;;;18.50;99.90;;;;;;5111209;28;20478;-53
2023/05/02 11:01:40;;;;;;;3.25;2.95;;;18.50;99.90;;;;;;5106961;28;20428;-52
2023/05/02 11:04:09;;;;;;;3.40;3.10;;;18.50;99.90;;;;;;5073548;28;20452;-54
2023/05/02 11:06:37;;;;;;;6.88;5.70;;;19.00;99.90;;;;;;5088000;28;20409;-54
2023/05/02 11:09:33;;;;;;;5.88;5.43;;;19.00;99.90;;;;;;5086552;28;20908;-53
2023/05/02 11:12:03;;;;;;;6.57;4.90;;;19.00;99.90;;;;;;5093573;28;20424;-55
2023/05/02 11:14:51;;;;;;;5.18;4.68;;;19.00;99.90;;;;;;5108895;28;20434;-50
2023/05/02 11:17:19;;;;;;;5.97;5.47;;;19.00;99.90;;;;;;5109734;28;20429;-52
2023/05/02 11:20:24;;;;;;;5.88;4.60;;;19.10;99.90;;;;;;5108932;28;20723;-53
2023/05/02 11:22:52;;;;;;;7.90;5.68;;;19.00;99.90;;;;;;5106649;28;20519;-54
2023/05/02 11:25:36;;;;;;;6.85;5.50;;;18.50;99.90;;;;;;5103983;28;20420;-54
2023/05/02 11:28:06;;;;;;;7.10;5.78;;;18.30;99.90;;;;;;5104163;28;20408;-53
2023/05/02 11:30:42;;;;;;;6.32;5.70;;;18.20;99.90;;;;;;5105442;28;20428;-51
2023/05/02 11:33:18;;;;;;;7.35;6.65;;;18.30;99.90;;;;;;5107523;28;20434;-53
2023/05/02 11:35:47;;;;;;;8.05;7.00;;;18.20;99.90;;;;;;5109267;28;20428;-51
2023/05/02 11:38:20;;;;;;;6.77;5.87;;;18.20;99.90;;;;;;5109745;28;20856;-52
2023/05/02 11:40:55;;;;;;;6.68;5.97;;;18.60;99.90;;;;;;5109354;28;20523;-49
2023/05/02 11:43:23;;;;;;;7.90;7.20;;;19.40;99.90;;;;;;5108041;28;20419;-51
2023/05/02 11:45:52;;;;;;;7.90;7.10;;;19.70;99.90;;;;;;5107553;28;20494;-51
2023/05/02 11:48:20;;;;;;;7.07;6.37;;;18.90;99.90;;;;;;5107979;28;20420;-54
2023/05/02 11:50:49;;;;;;;7.90;7.10;;;18.70;99.90;;;;;;5108073;28;20435;-52
2023/05/02 11:53:17;;;;;;;8.30;7.40;;;18.50;99.90;;;;;;5107446;28;20674;-51
2023/05/02 11:55:46;;;;;;;7.95;7.18;;;18.30;99.90;;;;;;5109345;28;20560;-54
2023/05/02 11:58:14;;;;;;;9.05;8.15;;;18.40;99.90;;;;;;5108480;28;20488;-52
2023/05/02 12:00:45;;;;;;;8.85;7.03;;;18.40;99.90;;;;;;5103871;28;20436;-54
2023/05/02 12:03:25;;;;;;;9.23;8.32;;;18.70;99.90;;;;;;5105684;28;20428;-53
2023/05/02 12:05:52;;;;;;;10.30;9.23;;;18.50;99.90;;;;;;5098979;28;20424;-54
2023/05/02 12:08:24;;;;;;;9.85;8.25;;;18.00;99.90;;;;;;5106935;28;20932;-50
2023/05/02 12:10:52;;;;;;;9.85;8.70;;;17.90;99.90;;;;;;5107241;28;20440;-54
2023/05/02 12:13:21;;;;;;;7.65;6.93;;;18.20;99.90;;;;;;5106890;28;20878;-50
2023/05/02 12:15:50;;;;;;;10.45;7.90;;;18.60;99.90;;;;;;5106397;28;20463;-53
2023/05/02 12:18:18;;;;;;;9.50;8.60;;;18.80;99.90;;;;;;5108503;28;20841;-53
2023/05/02 12:20:46;;;;;;;8.43;7.63;;;19.00;99.90;;;;;;5111326;28;20427;-52
2023/05/02 12:23:14;;;;;;;7.80;7.10;;;19.20;99.90;;;;;;5111076;28;20418;-51
2023/05/02 12:25:42;;;;;;;8.80;7.67;;;19.90;99.90;;;;;;5107433;28;20755;-55
2023/05/02 12:28:10;;;;;;;8.45;6.70;;;20.60;99.90;;;;;;5111068;28;20723;-51
2023/05/02 12:30:40;;;;;;;8.68;7.75;;;20.80;99.90;;;;;;5112013;27;20440;-52
2023/05/02 12:33:07;;;;;;;12.65;8.75;;;21.10;99.90;;;;;;5108197;28;20836;-53
2023/05/02 12:35:35;;;;;;;10.82;7.53;;;21.10;99.90;;;;;;5111669;28;20420;-52
2023/05/02 12:38:14;;;;;;;9.65;8.52;;;21.20;99.90;;;;;;5113901;28;20420;-55
2023/05/02 12:40:49;;;;;;;10.80;9.70;;;21.30;99.90;;;;;;5111602;28;21532;-52
2023/05/02 12:43:16;;;;;;;9.88;8.88;;;21.40;99.90;;;;;;5111836;28;20708;-55
2023/05/02 12:45:43;;;;;;;10.63;9.20;;;21.50;99.90;;;;;;5108800;28;20501;-53
2023/05/02 12:48:21;;;;;;;11.10;8.35;;;20.90;99.90;;;;;;5110051;28;20592;-54
2023/05/02 12:50:49;;;;;;;11.30;9.48;;;20.10;99.90;;;;;;5109114;28;20781;-54
2023/05/02 12:53:17;;;;;;;9.38;8.43;;;20.00;99.90;;;;;;5109282;28;20743;-51
2023/05/02 12:55:46;;;;;;;10.93;8.20;;;20.00;99.90;;;;;;5105390;28;20420;-53